To NAV CANADA Home Page Login to a new session Search on AWWS site Feedback and Comments Disclaimer Vers la page française équivalente Tips FAQ What's new on the site To the Forecasts and Observations / NOTAM section To "File a Flight Plan" website Publications and other links Update of the User's profile FIC Telephone Numbers My Weather Data Folder Route Weather Data Regional Weather Data Local Weather Data To the Forecasts and Observations / NOTAM section
Request Generated 02/08/2016 at 05:47:20 UTC . Weather information available at that time is displayed.

METAR/TAF

LLOYDMINSTER/AB    (show WxCam)

METAR CYLL 080500Z 27011KT 15SM FEW200 M06/M10 A3032 RMK CI1 LAST
STFD OBS/NEXT 081400 UTC SLP311=
METAR CYLL 080400Z 28012KT 15SM FEW200 M06/M09 A3033 RMK CI2 SLP317=
METAR CYLL 080300Z 27012KT 15SM FEW230 M06/M09 A3033 RMK CI1 SLP319=

TAF CYLL 080540Z 0806/0818 27010KT P6SM FEW120 BKN200
FM080900 26006KT P6SM BKN080 OVC140
FM081100 22008KT P6SM BKN040 BKN080 TEMPO 0811/0818 4SM -SN
OVC040 PROB30 0811/0816 P6SM -FZRA
RMK FCST BASED ON AUTO OBS. NXT FCST BY 081200Z=
Your time UTC time
Weather data provided by Environment Canada and NAV CANADA